Time;durP1;ratioP1;P1;durP2;ratioP2;P2;SDS_P1;SDS_P2;PMS_P1;PMS_P2;Temp;Humidity;BMP_temperature;BMP_pressure;BME280_temperature;BME280_humidity;BME280_pressure;Samples;Min_cycle;Max_cycle;Signal;HPM_P1;HPM_P2
2022/01/02 00:01:59;;;;;;;4.07;2.17;;;11.90;1.00;;;;;;5114739;28;20614;-63
2022/01/02 00:04:29;;;;;;;2.97;2.03;;;11.90;1.00;;;;;;5114781;28;20314;-62
2022/01/02 00:07:03;;;;;;;3.90;2.00;;;11.90;1.00;;;;;;5114556;28;20790;-64
2022/01/02 00:09:32;;;;;;;3.33;2.10;;;12.00;1.00;;;;;;5114751;28;20233;-63
2022/01/02 00:12:08;;;;;;;4.63;2.10;;;12.00;1.00;;;;;;5114697;28;20211;-62
2022/01/02 00:14:36;;;;;;;3.33;1.87;;;12.00;1.00;;;;;;5114392;27;20203;-63
2022/01/02 00:17:07;;;;;;;4.40;2.10;;;12.00;1.00;;;;;;5114654;28;20207;-63
2022/01/02 00:19:37;;;;;;;3.53;2.10;;;12.00;1.00;;;;;;5114467;28;20223;-63
2022/01/02 00:22:14;;;;;;;4.00;1.93;;;12.00;1.00;;;;;;5114443;28;20661;-63
2022/01/02 00:24:42;;;;;;;3.90;2.20;;;12.00;1.00;;;;;;5114503;28;20206;-64
2022/01/02 00:27:10;;;;;;;3.67;1.60;;;11.90;1.00;;;;;;5113960;28;20207;-63
2022/01/02 00:29:38;;;;;;;3.37;2.00;;;11.90;1.00;;;;;;5114192;28;20231;-63
2022/01/02 00:32:06;;;;;;;3.47;1.70;;;11.90;1.00;;;;;;5114007;28;20674;-64
2022/01/02 00:34:35;;;;;;;4.40;2.17;;;11.80;1.00;;;;;;5114428;28;20207;-63
2022/01/02 00:37:02;;;;;;;3.13;1.83;;;11.80;1.00;;;;;;5113948;28;20689;-63
2022/01/02 00:39:30;;;;;;;3.23;2.30;;;11.80;1.00;;;;;;5114067;28;20223;-63
2022/01/02 00:42:01;;;;;;;3.97;2.07;;;11.80;1.00;;;;;;5114222;28;20699;-63
2022/01/02 00:44:34;;;;;;;2.93;2.10;;;11.80;1.00;;;;;;5113706;28;20222;-63
2022/01/02 00:47:08;;;;;;;5.33;2.00;;;11.70;1.00;;;;;;5114003;28;20367;-62
2022/01/02 00:49:40;;;;;;;3.73;1.80;;;11.70;1.00;;;;;;5113105;28;20782;-63
2022/01/02 00:52:13;;;;;;;2.70;2.10;;;11.70;1.00;;;;;;5114003;28;20207;-64
2022/01/02 00:54:45;;;;;;;3.93;2.00;;;11.70;1.00;;;;;;5113746;28;20215;-63
2022/01/02 00:57:16;;;;;;;4.60;2.20;;;11.70;1.00;;;;;;5113849;28;20249;-63
2022/01/02 00:59:49;;;;;;;4.17;2.43;;;11.70;1.00;;;;;;5113876;28;20773;-63
2022/01/02 01:02:20;;;;;;;3.87;1.83;;;11.70;1.00;;;;;;5113455;27;20364;-63
2022/01/02 01:04:49;;;;;;;3.27;2.10;;;11.70;1.00;;;;;;5113598;28;20298;-63
2022/01/02 01:07:17;;;;;;;3.63;1.87;;;11.70;1.00;;;;;;5113315;28;20231;-64
2022/01/02 01:09:48;;;;;;;5.87;2.07;;;11.70;1.00;;;;;;5113595;27;20276;-63
2022/01/02 01:12:14;;;;;;;4.50;2.27;;;11.80;1.00;;;;;;5113313;28;20256;-63
2022/01/02 01:14:41;;;;;;;3.27;2.13;;;11.90;99.90;;;;;;5113324;28;20203;-63
2022/01/02 01:17:10;;;;;;;3.77;2.10;;;11.90;99.90;;;;;;5113141;28;20207;-63
2022/01/02 01:19:36;;;;;;;4.37;2.03;;;11.90;99.90;;;;;;5113074;28;20228;-63
2022/01/02 01:22:03;;;;;;;4.23;1.83;;;12.00;99.90;;;;;;5113483;28;20203;-64
2022/01/02 01:24:34;;;;;;;3.33;2.30;;;12.00;99.90;;;;;;5113283;28;20256;-63
2022/01/02 01:27:04;;;;;;;4.73;2.00;;;12.00;99.90;;;;;;5113570;28;20249;-64
2022/01/02 01:29:34;;;;;;;3.00;2.30;;;12.10;99.90;;;;;;5112939;28;20760;-63
2022/01/02 01:32:01;;;;;;;4.57;2.07;;;12.10;99.90;;;;;;5113449;28;20212;-64
2022/01/02 01:34:27;;;;;;;6.43;2.13;;;12.20;99.90;;;;;;5113704;28;20207;-62
2022/01/02 01:36:54;;;;;;;4.80;2.30;;;12.20;99.90;;;;;;5118139;28;20641;-63
2022/01/02 01:39:21;;;;;;;2.93;1.90;;;12.30;99.90;;;;;;5114504;28;20689;-63
2022/01/02 01:41:52;;;;;;;2.80;1.90;;;12.30;97.10;;;;;;5113091;28;20214;-61
2022/01/02 01:44:39;;;;;;;3.53;1.83;;;12.30;99.90;;;;;;5112730;28;20309;-61
2022/01/02 01:47:06;;;;;;;4.83;2.20;;;12.30;99.90;;;;;;5112796;28;20307;-61
2022/01/02 01:49:32;;;;;;;4.03;2.00;;;12.30;99.90;;;;;;5112816;28;20231;-62
2022/01/02 01:51:59;;;;;;;2.90;1.70;;;12.30;99.90;;;;;;5113059;28;20256;-62
2022/01/02 01:54:27;;;;;;;3.67;2.20;;;12.30;99.90;;;;;;5112855;28;20608;-62
2022/01/02 01:56:54;;;;;;;5.17;2.10;;;12.30;99.90;;;;;;5113990;28;20207;-62
2022/01/02 01:59:22;;;;;;;4.57;2.37;;;12.30;99.90;;;;;;5116606;28;20623;-62
2022/01/02 02:01:50;;;;;;;3.27;2.20;;;12.20;99.90;;;;;;5113578;28;20213;-62
2022/01/02 02:04:17;;;;;;;5.63;2.73;;;12.20;99.90;;;;;;5112848;28;20206;-64
2022/01/02 02:06:43;;;;;;;3.50;2.50;;;12.20;99.90;;;;;;5112718;28;20223;-62
2022/01/02 02:09:11;;;;;;;3.60;2.40;;;12.20;99.90;;;;;;5112197;28;20581;-63
2022/01/02 02:11:39;;;;;;;3.87;2.20;;;12.20;99.90;;;;;;5112581;28;20209;-62
2022/01/02 02:14:07;;;;;;;7.07;2.30;;;12.10;99.90;;;;;;5112653;28;20389;-62
2022/01/02 02:16:36;;;;;;;5.43;2.30;;;12.10;99.90;;;;;;5112438;28;20680;-63
2022/01/02 02:19:04;;;;;;;4.03;2.10;;;12.10;99.90;;;;;;5112550;27;20229;-63
2022/01/02 02:21:34;;;;;;;7.60;2.63;;;12.10;99.90;;;;;;5112099;28;20207;-63
2022/01/02 02:24:01;;;;;;;4.80;2.37;;;12.00;99.90;;;;;;5112238;28;20212;-63
2022/01/02 02:26:28;;;;;;;3.70;2.00;;;12.10;99.90;;;;;;5112298;28;20233;-63
2022/01/02 02:28:54;;;;;;;4.00;2.20;;;12.10;99.90;;;;;;5112112;28;20223;-63
2022/01/02 02:31:21;;;;;;;3.60;2.00;;;12.20;99.90;;;;;;5112245;28;20607;-63
2022/01/02 02:33:48;;;;;;;4.77;2.60;;;12.20;99.90;;;;;;5112347;28;20665;-63
2022/01/02 02:36:14;;;;;;;5.43;2.53;;;12.10;99.90;;;;;;5112360;28;20637;-63
2022/01/02 02:38:43;;;;;;;4.60;2.30;;;12.10;99.90;;;;;;5112506;28;20223;-62
2022/01/02 02:41:10;;;;;;;3.43;2.07;;;12.00;99.90;;;;;;5112193;28;20205;-63
2022/01/02 02:43:44;;;;;;;3.50;2.30;;;12.00;1.00;;;;;;5112482;28;20218;-63
2022/01/02 02:49:02;;;;;;;5.47;2.20;;;12.00;1.00;;;;;;5112052;28;20266;-63
2022/01/02 02:51:39;;;;;;;4.83;2.23;;;12.00;1.00;;;;;;5112004;28;20224;-63
2022/01/02 02:54:08;;;;;;;5.37;2.33;;;12.00;1.00;;;;;;5112594;28;20616;-63
2022/01/02 02:56:43;;;;;;;6.37;2.30;;;12.00;1.00;;;;;;5111842;28;20199;-63
2022/01/02 02:59:11;;;;;;;4.93;2.40;;;12.00;1.00;;;;;;5112061;28;20223;-63
2022/01/02 03:01:39;;;;;;;4.77;2.07;;;12.00;1.00;;;;;;5111824;28;20205;-63
2022/01/02 03:04:06;;;;;;;4.60;2.17;;;12.10;1.00;;;;;;5111859;28;20208;-63
2022/01/02 03:06:33;;;;;;;4.73;2.17;;;12.10;1.00;;;;;;5111789;28;20204;-63
2022/01/02 03:09:06;;;;;;;4.07;1.97;;;12.10;1.00;;;;;;5111520;28;20275;-63
2022/01/02 03:11:35;;;;;;;4.07;2.03;;;12.20;1.00;;;;;;5113308;28;20223;-63
2022/01/02 03:14:01;;;;;;;4.90;2.50;;;12.10;1.00;;;;;;5115579;28;20213;-63
2022/01/02 03:16:28;;;;;;;3.57;2.60;;;12.10;1.00;;;;;;5115574;27;20214;-63
2022/01/02 03:18:55;;;;;;;6.47;2.47;;;12.10;1.00;;;;;;5115920;28;20278;-63
2022/01/02 03:21:23;;;;;;;6.47;2.30;;;12.10;1.00;;;;;;5115563;28;20200;-63
2022/01/02 03:23:50;;;;;;;12.03;2.40;;;12.10;1.00;;;;;;5115724;28;20318;-63
2022/01/02 03:26:17;;;;;;;5.33;2.37;;;12.10;1.00;;;;;;5115044;28;20218;-63
2022/01/02 03:28:45;;;;;;;4.43;2.37;;;12.10;1.00;;;;;;5115871;28;20295;-63
2022/01/02 03:31:12;;;;;;;4.87;1.77;;;12.00;1.00;;;;;;5115769;28;20241;-63
2022/01/02 03:33:39;;;;;;;6.10;2.40;;;12.10;1.00;;;;;;5115495;28;20718;-63
2022/01/02 03:36:06;;;;;;;5.63;2.10;;;12.10;1.00;;;;;;5115457;27;20204;-63
2022/01/02 03:38:33;;;;;;;3.57;2.43;;;12.10;1.00;;;;;;5115084;28;20220;-63
2022/01/02 03:41:00;;;;;;;5.20;2.13;;;12.10;1.00;;;;;;5115177;28;20225;-63
2022/01/02 03:43:26;;;;;;;4.93;2.40;;;12.10;7.60;;;;;;5115315;28;20203;-63
2022/01/02 03:45:54;;;;;;;4.57;1.87;;;12.10;29.70;;;;;;5115010;28;20264;-63
2022/01/02 03:48:21;;;;;;;5.67;2.57;;;12.10;58.70;;;;;;5115295;28;20591;-63
2022/01/02 03:50:48;;;;;;;7.30;2.40;;;12.10;86.70;;;;;;5114954;28;20223;-63
2022/01/02 03:53:15;;;;;;;6.53;2.20;;;12.10;99.90;;;;;;5115025;28;20270;-63
2022/01/02 03:55:42;;;;;;;7.13;2.37;;;12.10;99.90;;;;;;5114869;28;20256;-63
2022/01/02 03:58:09;;;;;;;6.57;2.50;;;12.10;99.90;;;;;;5114953;28;20555;-63
2022/01/02 04:00:36;;;;;;;6.73;2.57;;;12.00;99.90;;;;;;5115034;27;20222;-63
2022/01/02 04:03:04;;;;;;;5.87;2.27;;;12.00;99.90;;;;;;5114513;28;20282;-63
2022/01/02 04:05:31;;;;;;;7.27;2.53;;;12.00;99.90;;;;;;5114831;28;20214;-63
2022/01/02 04:07:58;;;;;;;6.27;2.40;;;11.90;99.90;;;;;;5114218;28;20207;-63
2022/01/02 04:10:25;;;;;;;7.73;2.80;;;11.90;99.90;;;;;;5114786;28;20222;-63
2022/01/02 04:12:51;;;;;;;7.83;2.40;;;11.80;99.90;;;;;;5114563;28;20256;-63
2022/01/02 04:15:18;;;;;;;10.33;2.40;;;11.80;99.90;;;;;;5114621;28;20208;-63
2022/01/02 04:17:45;;;;;;;4.60;2.30;;;11.70;99.90;;;;;;5114437;28;20573;-63
2022/01/02 04:20:15;;;;;;;5.10;2.30;;;11.70;99.90;;;;;;5114409;27;20577;-63
2022/01/02 04:22:42;;;;;;;5.53;2.03;;;11.60;99.90;;;;;;5113588;28;20220;-63
2022/01/02 04:25:10;;;;;;;7.57;2.77;;;11.70;99.90;;;;;;5114528;28;20211;-63
2022/01/02 04:27:37;;;;;;;6.07;2.40;;;11.70;1.00;;;;;;5114585;28;20204;-63
2022/01/02 04:30:06;;;;;;;6.27;2.20;;;11.70;1.00;;;;;;5114921;28;20296;-63
2022/01/02 04:32:32;;;;;;;4.03;2.13;;;11.60;1.00;;;;;;5114167;28;20208;-63
2022/01/02 04:34:59;;;;;;;4.50;2.53;;;11.60;1.00;;;;;;5114153;28;20207;-63
2022/01/02 04:37:27;;;;;;;4.87;2.90;;;11.60;1.00;;;;;;5113970;28;20216;-63
2022/01/02 04:39:54;;;;;;;5.93;2.57;;;11.60;1.00;;;;;;5114325;28;20230;-63
2022/01/02 04:42:21;;;;;;;4.30;2.47;;;11.60;1.00;;;;;;5114078;28;20211;-63
2022/01/02 04:44:47;;;;;;;7.07;2.50;;;11.50;1.00;;;;;;5113925;28;20219;-63
2022/01/02 04:47:14;;;;;;;7.10;3.03;;;11.50;1.00;;;;;;5113989;27;20211;-63
2022/01/02 04:49:41;;;;;;;6.03;2.70;;;11.50;1.00;;;;;;5113721;28;20269;-63
2022/01/02 04:52:07;;;;;;;5.57;2.77;;;11.50;1.00;;;;;;5114082;28;20226;-63
2022/01/02 04:54:35;;;;;;;3.90;2.40;;;11.40;1.00;;;;;;5114019;27;20623;-62
2022/01/02 04:57:02;;;;;;;10.27;2.80;;;11.40;1.00;;;;;;5113605;28;20750;-63
2022/01/02 04:59:29;;;;;;;5.87;2.43;;;11.40;1.00;;;;;;5113507;28;20631;-63
2022/01/02 05:01:55;;;;;;;4.30;2.37;;;11.40;1.00;;;;;;5113877;28;20200;-63
2022/01/02 05:04:22;;;;;;;6.73;3.03;;;11.30;1.00;;;;;;5113965;28;20265;-63
2022/01/02 05:06:48;;;;;;;5.37;2.10;;;11.30;1.00;;;;;;5113813;28;20205;-63
2022/01/02 05:09:15;;;;;;;7.93;2.70;;;11.30;1.00;;;;;;5113719;28;20236;-63
2022/01/02 05:11:43;;;;;;;5.70;2.80;;;11.30;1.00;;;;;;5113497;28;20228;-63
2022/01/02 05:14:10;;;;;;;4.77;2.50;;;11.40;1.00;;;;;;5113839;28;20256;-63
2022/01/02 05:16:36;;;;;;;5.83;2.67;;;11.40;1.00;;;;;;5113296;28;20212;-64
2022/01/02 05:19:03;;;;;;;7.63;2.33;;;11.40;1.00;;;;;;5112902;28;20227;-63
2022/01/02 05:21:30;;;;;;;6.30;2.63;;;11.50;1.00;;;;;;5113714;28;20209;-63
2022/01/02 05:23:56;;;;;;;9.00;2.97;;;11.40;1.00;;;;;;5113491;28;20678;-64
2022/01/02 05:26:24;;;;;;;6.10;2.50;;;11.40;1.00;;;;;;5113141;27;20207;-63
2022/01/02 05:28:52;;;;;;;4.30;2.00;;;11.40;1.00;;;;;;5113265;28;20224;-63
2022/01/02 05:31:18;;;;;;;4.97;3.27;;;11.40;1.00;;;;;;5113003;27;20282;-63
2022/01/02 05:33:45;;;;;;;7.83;3.03;;;11.40;1.00;;;;;;5113521;28;20203;-63
2022/01/02 05:36:12;;;;;;;10.33;2.57;;;11.40;1.00;;;;;;5113266;27;20207;-63
2022/01/02 05:38:38;;;;;;;4.73;2.43;;;11.40;1.00;;;;;;5113284;28;20590;-64
2022/01/02 05:41:05;;;;;;;8.33;2.60;;;11.40;1.00;;;;;;5113716;28;20205;-63
2022/01/02 05:43:32;;;;;;;8.30;2.77;;;11.40;1.00;;;;;;5113228;28;20206;-63
2022/01/02 05:46:05;;;;;;;7.17;2.83;;;11.40;1.00;;;;;;5112733;28;20207;-63
2022/01/02 05:48:32;;;;;;;7.17;2.87;;;11.40;1.00;;;;;;5112980;28;20282;-63
2022/01/02 05:51:00;;;;;;;6.83;2.67;;;11.40;1.00;;;;;;5113199;28;20315;-63
2022/01/02 05:53:28;;;;;;;8.20;2.50;;;11.40;1.00;;;;;;5112696;28;20203;-63
2022/01/02 05:55:54;;;;;;;9.57;3.13;;;11.40;1.00;;;;;;5112880;28;20216;-63
2022/01/02 05:58:22;;;;;;;8.07;2.80;;;11.40;1.00;;;;;;5112618;28;20305;-63
2022/01/02 06:00:49;;;;;;;6.33;2.77;;;11.30;1.00;;;;;;5112384;28;20264;-63
2022/01/02 06:03:17;;;;;;;5.57;2.23;;;11.40;1.00;;;;;;5112629;28;20626;-63
2022/01/02 06:05:43;;;;;;;5.67;2.60;;;11.40;1.00;;;;;;5112384;28;20264;-63
2022/01/02 06:08:10;;;;;;;7.87;2.57;;;11.40;1.00;;;;;;5112255;28;20220;-63
2022/01/02 06:10:37;;;;;;;8.57;2.70;;;11.40;1.00;;;;;;5112436;28;20211;-63
2022/01/02 06:13:03;;;;;;;6.33;2.80;;;11.40;1.00;;;;;;5112358;28;20204;-63
2022/01/02 06:15:30;;;;;;;6.07;2.80;;;11.30;1.00;;;;;;5112254;27;20353;-63
2022/01/02 06:17:57;;;;;;;9.30;3.03;;;11.30;1.00;;;;;;5112197;28;20203;-63
2022/01/02 06:20:25;;;;;;;11.57;2.90;;;11.20;1.00;;;;;;5112592;28;20204;-63
2022/01/02 06:22:53;;;;;;;8.33;3.20;;;11.20;1.00;;;;;;5112256;28;20252;-63
2022/01/02 06:25:21;;;;;;;9.10;3.37;;;11.20;1.00;;;;;;5112060;28;20302;-63
2022/01/02 06:27:48;;;;;;;11.73;3.17;;;11.20;1.00;;;;;;5112267;28;20215;-63
2022/01/02 06:30:15;;;;;;;8.63;3.07;;;11.20;1.00;;;;;;5111989;28;20294;-63
2022/01/02 06:32:42;;;;;;;9.27;2.90;;;11.20;1.00;;;;;;5112150;28;20219;-63
2022/01/02 06:35:09;;;;;;;7.23;2.87;;;11.30;1.00;;;;;;5112053;28;20207;-63
2022/01/02 06:37:37;;;;;;;7.57;2.97;;;11.30;1.00;;;;;;5111658;28;20670;-63
2022/01/02 06:40:04;;;;;;;11.27;3.17;;;11.30;1.00;;;;;;5111603;28;20717;-63
2022/01/02 06:42:31;;;;;;;15.20;3.77;;;11.30;1.00;;;;;;5112216;28;20257;-63
2022/01/02 06:44:58;;;;;;;6.57;3.10;;;11.20;1.00;;;;;;5112083;28;20218;-63
2022/01/02 06:47:25;;;;;;;7.53;2.80;;;11.20;1.00;;;;;;5111694;28;20207;-64
2022/01/02 06:49:51;;;;;;;5.70;2.97;;;11.20;1.00;;;;;;5111956;28;20284;-63
2022/01/02 06:52:18;;;;;;;7.27;3.40;;;11.10;1.00;;;;;;5111699;28;20249;-63
2022/01/02 06:54:46;;;;;;;8.17;3.00;;;11.00;1.00;;;;;;5112093;28;20264;-62
2022/01/02 06:57:13;;;;;;;4.73;3.00;;;11.00;1.00;;;;;;5111773;28;20292;-62
2022/01/02 06:59:41;;;;;;;10.50;3.00;;;10.90;1.00;;;;;;5112245;28;20303;-62
2022/01/02 07:02:07;;;;;;;7.90;3.27;;;10.90;1.00;;;;;;5112049;28;20203;-62
2022/01/02 07:04:34;;;;;;;7.43;3.50;;;10.90;1.00;;;;;;5112215;28;20211;-63
2022/01/02 07:07:01;;;;;;;7.97;3.67;;;11.00;1.00;;;;;;5112085;28;20212;-63
2022/01/02 07:09:29;;;;;;;10.47;3.20;;;10.90;1.00;;;;;;5111393;28;20339;-63
2022/01/02 07:11:57;;;;;;;9.50;3.80;;;10.90;1.00;;;;;;5111991;28;20268;-63
2022/01/02 07:14:27;;;;;;;9.00;3.17;;;10.90;1.00;;;;;;5111863;28;20207;-63
2022/01/02 07:16:53;;;;;;;8.97;3.70;;;10.90;1.00;;;;;;5112047;28;20238;-63
2022/01/02 07:19:20;;;;;;;7.00;3.43;;;10.90;1.00;;;;;;5111682;28;20230;-63
2022/01/02 07:21:47;;;;;;;9.57;3.40;;;10.90;1.00;;;;;;5111378;28;20290;-63
2022/01/02 07:24:13;;;;;;;7.53;3.87;;;10.90;1.00;;;;;;5111809;28;20207;-63
2022/01/02 07:26:40;;;;;;;8.10;3.67;;;10.90;1.00;;;;;;5111295;28;20260;-63
2022/01/02 07:29:08;;;;;;;8.33;3.67;;;10.80;1.00;;;;;;5111580;28;20224;-62
2022/01/02 07:31:35;;;;;;;5.80;2.80;;;10.70;1.00;;;;;;5111286;28;20630;-63
2022/01/02 07:34:02;;;;;;;8.53;3.70;;;10.70;1.00;;;;;;5111489;28;20628;-63
2022/01/02 07:36:28;;;;;;;11.10;3.30;;;10.60;1.00;;;;;;5111193;28;20207;-63
2022/01/02 07:38:55;;;;;;;6.77;3.40;;;10.60;1.00;;;;;;5111030;28;20770;-63
2022/01/02 07:41:22;;;;;;;8.83;3.67;;;10.60;1.00;;;;;;5111652;28;20614;-63
2022/01/02 07:43:49;;;;;;;8.53;3.60;;;10.60;1.00;;;;;;5111389;28;20223;-63
2022/01/02 07:46:17;;;;;;;4.77;3.17;;;10.60;1.00;;;;;;5111523;28;20625;-64
2022/01/02 07:48:43;;;;;;;6.23;3.70;;;10.60;1.00;;;;;;5111305;28;20223;-63
2022/01/02 07:51:10;;;;;;;6.27;2.70;;;10.70;1.00;;;;;;5111735;28;20220;-63
2022/01/02 07:53:37;;;;;;;8.07;3.17;;;10.70;1.00;;;;;;5111968;28;20260;-63
2022/01/02 07:56:03;;;;;;;4.93;3.27;;;10.70;1.00;;;;;;5111094;28;20203;-63
2022/01/02 07:58:30;;;;;;;9.47;3.37;;;10.70;1.00;;;;;;5113001;28;20227;-63
2022/01/02 08:00:56;;;;;;;6.43;3.30;;;10.80;1.00;;;;;;5115074;28;20203;-63
2022/01/02 08:03:24;;;;;;;8.77;3.37;;;10.80;1.00;;;;;;5114621;28;20204;-64
2022/01/02 08:05:51;;;;;;;8.83;2.93;;;10.90;1.00;;;;;;5115112;28;20260;-63
2022/01/02 08:08:18;;;;;;;8.80;3.13;;;10.90;1.00;;;;;;5114733;28;20231;-64
2022/01/02 08:10:45;;;;;;;6.00;3.30;;;10.90;1.00;;;;;;5114883;27;20203;-64
2022/01/02 08:13:11;;;;;;;8.63;3.13;;;10.90;1.00;;;;;;5114621;28;20318;-64
2022/01/02 08:15:38;;;;;;;5.63;2.80;;;11.00;1.00;;;;;;5114692;28;20237;-64
2022/01/02 08:18:05;;;;;;;9.77;3.33;;;10.90;1.00;;;;;;5114241;28;20261;-63
2022/01/02 08:20:33;;;;;;;5.33;2.80;;;11.00;1.00;;;;;;5114371;28;20669;-63
2022/01/02 08:23:00;;;;;;;7.40;3.23;;;11.00;1.00;;;;;;5114849;27;20257;-64
2022/01/02 08:25:26;;;;;;;8.93;2.80;;;11.00;1.00;;;;;;5114377;28;20207;-63
2022/01/02 08:27:53;;;;;;;5.27;2.70;;;11.00;1.00;;;;;;5114147;28;20231;-63
2022/01/02 08:30:19;;;;;;;6.90;2.73;;;11.10;1.00;;;;;;5114338;28;20584;-63
2022/01/02 08:32:47;;;;;;;5.87;2.90;;;11.10;1.00;;;;;;5114282;28;20223;-63
2022/01/02 08:35:13;;;;;;;8.77;2.97;;;11.10;1.00;;;;;;5114718;28;20559;-64
2022/01/02 08:37:41;;;;;;;6.40;2.77;;;11.10;1.00;;;;;;5114016;27;20276;-63
2022/01/02 08:40:09;;;;;;;7.10;2.83;;;11.10;1.00;;;;;;5114295;28;20643;-63
2022/01/02 08:42:36;;;;;;;5.03;2.30;;;11.00;1.00;;;;;;5114300;27;20269;-63
2022/01/02 08:45:04;;;;;;;6.30;2.97;;;11.10;1.00;;;;;;5114131;28;20212;-63
2022/01/02 08:47:31;;;;;;;3.70;2.40;;;11.10;1.00;;;;;;5114191;28;20204;-62
2022/01/02 08:49:58;;;;;;;6.20;2.27;;;11.10;1.00;;;;;;5114012;28;20310;-63
2022/01/02 08:52:25;;;;;;;5.03;2.27;;;11.20;99.90;;;;;;5114253;28;20227;-61
2022/01/02 08:54:53;;;;;;;3.43;2.40;;;11.30;99.90;;;;;;5113760;28;20204;-62
2022/01/02 08:57:19;;;;;;;6.17;2.70;;;11.30;99.90;;;;;;5113809;28;20843;-61
2022/01/02 08:59:46;;;;;;;4.37;2.50;;;11.30;99.90;;;;;;5113466;27;20227;-63
2022/01/02 09:02:13;;;;;;;3.30;2.30;;;11.20;99.90;;;;;;5113978;28;20221;-64
2022/01/02 09:04:39;;;;;;;4.13;2.33;;;11.20;99.90;;;;;;5114147;28;20218;-64
2022/01/02 09:07:06;;;;;;;6.20;2.60;;;11.20;99.90;;;;;;5113328;28;20203;-62
2022/01/02 09:09:33;;;;;;;6.03;2.50;;;11.20;99.90;;;;;;5113379;28;20273;-64
2022/01/02 09:12:01;;;;;;;5.77;2.67;;;11.20;99.90;;;;;;5113426;28;20215;-63
2022/01/02 09:14:28;;;;;;;5.70;2.00;;;11.20;99.90;;;;;;5113583;28;20219;-63
2022/01/02 09:16:55;;;;;;;3.63;2.23;;;11.20;99.90;;;;;;5113222;28;20199;-63
2022/01/02 09:19:22;;;;;;;3.00;2.20;;;11.20;99.90;;;;;;5113875;28;20224;-62
2022/01/02 09:21:49;;;;;;;5.03;2.33;;;11.20;99.90;;;;;;5114865;28;20234;-63
2022/01/02 09:24:15;;;;;;;6.83;2.57;;;11.20;99.90;;;;;;5114550;28;20204;-63
2022/01/02 09:26:42;;;;;;;3.50;2.23;;;11.20;99.90;;;;;;5113464;28;20253;-64
2022/01/02 09:29:10;;;;;;;3.27;2.20;;;11.20;99.90;;;;;;5113782;27;20315;-63
2022/01/02 09:31:37;;;;;;;5.70;2.70;;;11.30;99.90;;;;;;5114682;28;20208;-62
2022/01/02 09:34:03;;;;;;;3.17;1.90;;;11.40;99.90;;;;;;5115114;28;20203;-63
2022/01/02 09:36:30;;;;;;;4.13;1.90;;;11.40;99.90;;;;;;5113557;28;20620;-63
2022/01/02 09:38:57;;;;;;;2.93;2.30;;;11.50;99.90;;;;;;5113321;28;20276;-62
2022/01/02 09:41:24;;;;;;;5.27;2.20;;;11.60;99.90;;;;;;5112737;28;20573;-61
2022/01/02 09:43:51;;;;;;;3.43;1.90;;;11.70;67.80;;;;;;5113258;28;20586;-61
2022/01/02 09:46:22;;;;;;;3.07;2.10;;;11.70;51.20;;;;;;5112661;28;20257;-62
2022/01/02 09:48:49;;;;;;;3.57;2.00;;;11.70;7.80;;;;;;5112983;28;20603;-63
2022/01/02 09:51:20;;;;;;;1.97;1.73;;;11.80;40.30;;;;;;5113196;28;20249;-63
2022/01/02 09:53:47;;;;;;;5.77;2.17;;;11.80;1.00;;;;;;5112595;28;20227;-63
2022/01/02 09:56:14;;;;;;;3.47;2.00;;;11.80;6.30;;;;;;5113730;28;20203;-65
2022/01/02 09:58:43;;;;;;;3.00;1.97;;;11.80;1.00;;;;;;5113826;27;20227;-64
2022/01/02 10:01:15;;;;;;;2.90;1.80;;;11.90;1.00;;;;;;5114146;28;20203;-64
2022/01/02 10:03:45;;;;;;;2.30;2.00;;;12.00;1.00;;;;;;5113351;28;20192;-64
2022/01/02 10:06:12;;;;;;;3.07;1.90;;;12.10;1.00;;;;;;5112822;28;20253;-62
2022/01/02 10:08:38;;;;;;;2.20;1.73;;;12.00;1.00;;;;;;5113213;28;20227;-63
2022/01/02 10:11:09;;;;;;;4.23;2.33;;;12.00;1.00;;;;;;5113138;28;20588;-63
2022/01/02 10:13:45;;;;;;;3.43;2.07;;;12.10;1.00;;;;;;5112692;27;20323;-63
2022/01/02 10:16:31;;;;;;;3.20;1.90;;;12.00;1.00;;;;;;5106630;28;20912;-63
2022/01/02 10:19:00;;;;;;;3.63;2.13;;;12.10;1.00;;;;;;5112115;28;20315;-63
2022/01/02 10:21:34;;;;;;;1.90;1.70;;;12.10;1.00;;;;;;5111522;28;20210;-64
2022/01/02 10:24:27;;;;;;;8.07;2.50;;;12.00;1.00;;;;;;5112184;28;20203;-64
2022/01/02 10:27:12;;;;;;;2.13;1.73;;;12.00;1.00;;;;;;5097123;28;20922;-64
2022/01/02 10:29:45;;;;;;;3.30;2.10;;;12.20;1.00;;;;;;5111678;28;20231;-64
2022/01/02 10:32:39;;;;;;;4.03;2.23;;;12.20;1.00;;;;;;5111960;28;20276;-64
2022/01/02 10:35:13;;;;;;;4.23;2.10;;;12.30;1.00;;;;;;5075476;28;20203;-64
2022/01/02 10:37:40;;;;;;;5.43;2.20;;;12.30;1.00;;;;;;5111584;27;20250;-64
2022/01/02 10:40:25;;;;;;;4.40;2.30;;;12.30;1.00;;;;;;5111577;28;20711;-64
2022/01/02 10:42:51;;;;;;;5.03;2.33;;;12.30;1.00;;;;;;5111838;28;20208;-64
2022/01/02 10:45:31;;;;;;;4.90;2.60;;;12.20;1.00;;;;;;5111288;28;20211;-64
2022/01/02 10:47:58;;;;;;;3.77;2.97;;;12.10;2.80;;;;;;5111453;28;20227;-64
2022/01/02 10:50:26;;;;;;;4.57;2.30;;;12.10;1.00;;;;;;5112092;28;20274;-64
2022/01/02 10:52:52;;;;;;;4.77;2.43;;;12.10;7.80;;;;;;5111511;28;20268;-63
2022/01/02 10:55:24;;;;;;;6.17;2.73;;;12.10;15.50;;;;;;5111730;28;20211;-65
2022/01/02 10:57:53;;;;;;;4.80;2.30;;;12.10;52.80;;;;;;5111485;28;20205;-61
2022/01/02 11:00:24;;;;;;;4.33;2.90;;;12.20;15.20;;;;;;5111624;28;20256;-64
2022/01/02 11:02:51;;;;;;;5.23;2.77;;;12.20;16.70;;;;;;5111525;28;20204;-62
2022/01/02 11:05:19;;;;;;;4.17;2.70;;;12.30;24.60;;;;;;5111263;28;20643;-63
2022/01/02 11:07:49;;;;;;;3.60;2.70;;;12.30;1.00;;;;;;5111453;28;20264;-64
2022/01/02 11:10:17;;;;;;;4.33;2.47;;;12.40;1.00;;;;;;5111231;28;20206;-64
2022/01/02 11:12:44;;;;;;;5.37;2.77;;;12.30;1.00;;;;;;5110279;28;20290;-64
2022/01/02 11:15:12;;;;;;;4.97;2.60;;;12.30;1.00;;;;;;5104760;28;20617;-64
2022/01/02 11:17:39;;;;;;;3.73;2.87;;;12.40;1.00;;;;;;5111160;28;20222;-64
2022/01/02 11:20:09;;;;;;;6.23;2.57;;;12.40;7.90;;;;;;5111050;28;20326;-64
2022/01/02 11:22:42;;;;;;;5.37;2.80;;;12.40;1.00;;;;;;5111069;28;20210;-64
2022/01/02 11:25:18;;;;;;;6.90;3.03;;;12.40;1.00;;;;;;5111161;28;20215;-64
2022/01/02 11:27:52;;;;;;;8.03;3.20;;;12.40;5.30;;;;;;5111239;28;20606;-64
2022/01/02 11:30:39;;;;;;;7.00;3.07;;;12.40;1.00;;;;;;5111781;28;20301;-64
2022/01/02 11:33:08;;;;;;;3.97;2.70;;;12.50;28.10;;;;;;5114015;28;20222;-65
2022/01/02 11:35:37;;;;;;;6.27;3.27;;;12.50;17.00;;;;;;5114885;28;20206;-65
2022/01/02 11:38:06;;;;;;;4.67;2.93;;;12.50;1.00;;;;;;5114940;28;20721;-65
2022/01/02 11:40:52;;;;;;;5.37;3.37;;;12.50;15.10;;;;;;5115150;28;20207;-64
2022/01/02 11:43:53;;;;;;;6.47;3.10;;;12.50;1.00;;;;;;5115487;27;20259;-64
2022/01/02 11:46:23;;;;;;;4.43;3.10;;;12.50;23.90;;;;;;5114296;28;20225;-65
2022/01/02 11:49:15;;;;;;;8.50;3.27;;;12.60;2.10;;;;;;5115318;28;20226;-65
2022/01/02 11:52:14;;;;;;;4.97;3.00;;;12.60;39.00;;;;;;5115331;28;20210;-64
2022/01/02 11:54:49;;;;;;;5.60;3.10;;;12.60;12.10;;;;;;5112190;28;20214;-64
2022/01/02 11:57:55;;;;;;;6.70;3.63;;;12.70;1.00;;;;;;5115091;28;20252;-65
2022/01/02 12:00:46;;;;;;;6.43;2.63;;;12.60;1.00;;;;;;5114592;27;20203;-64
2022/01/02 12:03:51;;;;;;;6.67;3.03;;;12.60;1.00;;;;;;5114694;27;20211;-64
2022/01/02 12:06:22;;;;;;;5.07;3.40;;;12.50;1.00;;;;;;5114421;27;20222;-64
2022/01/02 12:08:49;;;;;;;5.70;3.13;;;12.50;1.00;;;;;;5115044;28;20328;-63
2022/01/02 12:11:42;;;;;;;6.10;3.33;;;12.50;1.00;;;;;;5114222;28;20264;-63
2022/01/02 12:14:10;;;;;;;4.37;2.70;;;12.60;1.00;;;;;;5114356;28;20368;-63
2022/01/02 12:16:41;;;;;;;3.90;2.67;;;12.60;1.00;;;;;;5113880;28;20211;-63
2022/01/02 12:19:09;;;;;;;6.87;2.77;;;12.60;1.00;;;;;;5114328;28;20224;-63
2022/01/02 12:21:37;;;;;;;7.97;3.00;;;12.60;1.00;;;;;;5114207;28;20203;-64
2022/01/02 12:24:12;;;;;;;6.63;2.53;;;12.50;1.00;;;;;;5110792;28;20210;-63
2022/01/02 12:26:39;;;;;;;6.57;2.97;;;12.50;1.00;;;;;;5113838;28;20306;-62
2022/01/02 12:29:07;;;;;;;6.47;3.40;;;12.60;1.00;;;;;;5113992;28;20223;-62
2022/01/02 12:31:36;;;;;;;5.73;3.10;;;12.50;1.00;;;;;;5114152;28;20235;-62
2022/01/02 12:34:06;;;;;;;6.87;2.40;;;12.50;1.00;;;;;;5114140;28;20238;-62
2022/01/02 12:36:33;;;;;;;5.27;2.57;;;12.50;1.00;;;;;;5113752;27;20210;-62
2022/01/02 12:39:03;;;;;;;6.07;2.53;;;12.50;1.00;;;;;;5114276;28;20230;-63
2022/01/02 12:41:32;;;;;;;5.63;2.60;;;12.40;1.00;;;;;;5114010;28;20211;-62
2022/01/02 12:44:00;;;;;;;4.60;2.73;;;12.40;1.00;;;;;;5113789;28;20628;-63
2022/01/02 12:46:35;;;;;;;5.00;2.43;;;12.40;4.10;;;;;;5114105;28;20199;-62
2022/01/02 12:49:03;;;;;;;9.93;2.87;;;12.40;4.30;;;;;;5114107;28;20266;-62
2022/01/02 12:51:31;;;;;;;5.43;2.83;;;12.40;1.00;;;;;;5114143;28;20528;-62
2022/01/02 12:54:02;;;;;;;5.13;2.40;;;12.30;4.80;;;;;;5113361;28;20713;-63
2022/01/02 12:56:33;;;;;;;5.47;2.70;;;12.40;1.00;;;;;;5113483;28;20642;-61
2022/01/02 12:59:29;;;;;;;5.17;2.60;;;12.30;15.20;;;;;;5113658;28;20630;-61
2022/01/02 13:01:59;;;;;;;4.57;2.30;;;12.30;32.40;;;;;;5077866;28;20207;-62
2022/01/02 13:04:30;;;;;;;5.03;2.50;;;12.30;15.20;;;;;;5113459;28;20287;-60
2022/01/02 13:06:59;;;;;;;7.80;2.40;;;12.30;17.80;;;;;;5112624;28;20302;-63